Time;durP1;ratioP1;P1;durP2;ratioP2;P2;SDS_P1;SDS_P2;PMS_P1;PMS_P2;Temp;Humidity;BMP_temperature;BMP_pressure;BME280_temperature;BME280_humidity;BME280_pressure;Samples;Min_cycle;Max_cycle;Signal;HPM_P1;HPM_P2
2023/04/29 00:16:51;;;;;;;;;;;;;;;22.15;44.24;100239.56;41482701;28;19929;-75
2023/04/29 00:36:51;;;;;;;;;;;;;;;22.20;44.06;100221.56;41476310;28;19925;-75
2023/04/29 00:56:53;;;;;;;;;;;;;;;22.18;44.30;100228.75;41476170;28;19925;-75
2023/04/29 01:16:58;;;;;;;;;;;;;;;22.16;43.99;100230.69;41482291;28;20019;-73
2023/04/29 01:37:06;;;;;;;;;;;;;;;22.09;44.20;100229.53;41509403;28;19925;-74
2023/04/29 01:57:06;;;;;;;;;;;;;;;22.05;44.12;100212.31;41533824;28;19925;-74
2023/04/29 02:17:16;;;;;;;;;;;;;;;22.04;44.28;100218.53;41581220;28;20853;-74
2023/04/29 02:37:16;;;;;;;;;;;;;;;22.01;44.29;100217.00;41563520;28;19925;-74
2023/04/29 02:57:17;;;;;;;;;;;;;;;21.98;44.04;100195.31;41550741;28;19929;-73
2023/04/29 03:17:18;;;;;;;;;;;;;;;21.94;44.30;100196.56;41510396;28;19929;-74
2023/04/29 03:37:20;;;;;;;;;;;;;;;21.91;44.28;100206.38;41532632;28;19921;-75
2023/04/29 03:57:20;;;;;;;;;;;;;;;21.86;44.20;100210.34;41463568;28;19925;-74
2023/04/29 04:17:22;;;;;;;;;;;;;;;21.88;44.02;100232.97;41519005;28;20304;-74
2023/04/29 04:37:24;;;;;;;;;;;;;;;21.87;43.95;100239.25;41456199;28;19932;-73
2023/04/29 04:57:25;;;;;;;;;;;;;;;21.86;44.02;100226.16;41467616;28;20288;-77
2023/04/29 05:17:25;;;;;;;;;;;;;;;21.97;44.47;100217.38;41497235;28;19972;-77
2023/04/29 05:37:29;;;;;;;;;;;;;;;22.01;44.98;100240.72;41480071;28;19952;-76
2023/04/29 05:57:30;;;;;;;;;;;;;;;22.01;44.99;100240.72;41480923;28;19925;-78
2023/04/29 06:17:31;;;;;;;;;;;;;;;22.02;45.05;100250.31;41486177;28;19929;-77
2023/04/29 06:37:31;;;;;;;;;;;;;;;22.04;45.38;100251.00;41495054;28;19905;-77
2023/04/29 06:57:35;;;;;;;;;;;;;;;22.06;45.07;100256.16;41483021;28;19921;-76
2023/04/29 07:17:36;;;;;;;;;;;;;;;22.06;43.70;100254.34;41467833;28;21694;-77
2023/04/29 07:37:37;;;;;;;;;;;;;;;22.01;41.43;100261.00;41430303;28;19948;-78
2023/04/29 07:57:38;;;;;;;;;;;;;;;21.91;39.24;100271.47;41450924;28;19933;-73
2023/04/29 08:18:01;;;;;;;;;;;;;;;21.77;37.92;100264.66;41519034;28;20242;-79
2023/04/29 08:38:03;;;;;;;;;;;;;;;21.85;39.34;100278.06;41494400;28;19937;-76
2023/04/29 08:58:06;;;;;;;;;;;;;;;21.90;41.21;100278.50;41512351;28;20004;-83
2023/04/29 09:18:33;;;;;;;;;;;;;;;21.95;41.62;100293.09;41493834;28;19947;-80
2023/04/29 09:38:35;;;;;;;;;;;;;;;21.95;41.67;100287.84;41564321;28;19971;-81
2023/04/29 09:58:36;;;;;;;;;;;;;;;21.97;41.76;100278.88;41603223;28;19925;-79
2023/04/29 10:18:39;;;;;;;;;;;;;;;22.02;42.11;100273.19;41587183;28;19932;-79
2023/04/29 10:38:43;;;;;;;;;;;;;;;22.06;42.68;100251.72;41473503;28;19988;-79
2023/04/29 10:58:44;;;;;;;;;;;;;;;22.14;42.75;100224.72;41653233;28;19917;-79
2023/04/29 11:19:04;;;;;;;;;;;;;;;22.19;42.37;100193.53;41590316;28;19921;-79
2023/04/29 11:39:04;;;;;;;;;;;;;;;22.28;42.27;100178.72;41554184;28;19968;-78
2023/04/29 11:59:06;;;;;;;;;;;;;;;22.41;42.59;100181.16;41548167;28;20284;-79
2023/04/29 12:19:09;;;;;;;;;;;;;;;22.62;42.11;100169.69;41532184;28;20961;-80
2023/04/29 12:39:10;;;;;;;;;;;;;;;22.68;41.99;100159.47;41548151;28;19928;-79
2023/04/29 12:59:11;;;;;;;;;;;;;;;22.88;41.98;100127.00;41529323;28;19929;-80
2023/04/29 13:19:11;;;;;;;;;;;;;;;23.03;41.70;100099.22;41575785;28;19925;-80
2023/04/29 13:39:14;;;;;;;;;;;;;;;23.07;41.70;100079.50;41541734;28;19936;-79
2023/04/29 13:59:14;;;;;;;;;;;;;;;23.11;41.66;100072.94;41613748;28;20623;-79
2023/04/29 14:19:15;;;;;;;;;;;;;;;23.04;41.57;100071.84;41562468;28;19921;-80
2023/04/29 14:39:15;;;;;;;;;;;;;;;23.08;41.60;100054.72;41568049;28;19921;-79
2023/04/29 14:59:15;;;;;;;;;;;;;;;23.08;41.73;100059.19;41603487;28;19929;-79
2023/04/29 15:19:16;;;;;;;;;;;;;;;23.09;41.53;100061.69;41564319;28;19968;-79
2023/04/29 15:39:16;;;;;;;;;;;;;;;23.03;41.37;100055.16;41530403;28;19932;-80
2023/04/29 15:59:17;;;;;;;;;;;;;;;23.49;40.62;100039.56;41598439;28;19929;-79
2023/04/29 16:19:17;;;;;;;;;;;;;;;23.30;40.79;100052.81;41534274;28;19929;-79
2023/04/29 16:39:17;;;;;;;;;;;;;;;23.08;41.24;100040.69;41550991;28;19929;-79
2023/04/29 16:59:17;;;;;;;;;;;;;;;22.95;41.59;100041.81;41538998;28;19926;-80
2023/04/29 17:19:18;;;;;;;;;;;;;;;22.84;41.46;100061.25;41535353;28;20005;-79
2023/04/29 17:39:18;;;;;;;;;;;;;;;22.75;41.30;100069.16;41510231;28;19917;-79
2023/04/29 17:59:19;;;;;;;;;;;;;;;22.63;41.44;100087.78;41536416;28;20427;-80
2023/04/29 18:19:19;;;;;;;;;;;;;;;22.55;41.56;100093.72;41562255;28;19921;-79
2023/04/29 18:39:19;;;;;;;;;;;;;;;22.47;41.67;100125.22;41534493;28;19925;-79
2023/04/29 18:59:20;;;;;;;;;;;;;;;22.42;41.90;100130.06;41586187;28;19921;-79
2023/04/29 19:19:22;;;;;;;;;;;;;;;22.33;41.83;100144.03;41564959;28;19932;-79
2023/04/29 19:39:23;;;;;;;;;;;;;;;22.24;42.20;100156.22;41546988;28;19928;-79
2023/04/29 19:59:25;;;;;;;;;;;;;;;22.15;42.00;100165.72;41554908;28;19921;-78
2023/04/29 20:19:25;;;;;;;;;;;;;;;22.12;42.05;100163.34;41578457;28;19925;-79
2023/04/29 20:39:26;;;;;;;;;;;;;;;22.12;42.44;100154.59;41602261;28;19921;-79
2023/04/29 20:59:26;;;;;;;;;;;;;;;22.16;41.99;100185.03;41494767;28;19928;-79
2023/04/29 21:19:26;;;;;;;;;;;;;;;22.06;42.39;100191.06;41572349;28;19921;-79
2023/04/29 21:39:27;;;;;;;;;;;;;;;22.13;42.21;100193.19;41595440;28;19967;-79
2023/04/29 21:59:33;;;;;;;;;;;;;;;22.11;42.16;100200.41;41544426;28;19968;-79
2023/04/29 22:19:33;;;;;;;;;;;;;;;22.10;42.13;100194.28;41592704;28;19941;-79
2023/04/29 22:39:39;;;;;;;;;;;;;;;22.07;41.87;100203.28;41600743;28;19921;-79
2023/04/29 22:59:40;;;;;;;;;;;;;;;22.04;42.00;100202.72;41577262;28;20010;-79
2023/04/29 23:19:41;;;;;;;;;;;;;;;22.02;42.14;100202.84;41540847;28;19987;-79
2023/04/29 23:39:41;;;;;;;;;;;;;;;22.02;41.94;100191.44;41563707;28;19967;-79
2023/04/29 23:59:41;;;;;;;;;;;;;;;22.00;42.16;100182.84;41515960;28;19925;-79
